Latest Weather Observations for Swan Island

IDT60801

Issued at 5:31 pm EST Saturday 22 September 2018 (issued every 10 minutes, with the page automatically refreshed every 10 minutes)

About weather observations | Map of weather stations | Latest weather observations for TAS | Other Formats
Station Details ID: 092123 Name: SWAN ISLAND Lat: -40.73 Lon: 148.12 Height: 15.0 m
Data from the previous 72 hours. | See also: Recent months at Swan Island
Date/Time
EST
Temp
°C
App
Temp
°C
Dew
Point
°C
Rel
Hum
%
Delta-T
°C
Wind Press
QNH
hPa
Press
MSL
hPa
Rain since
9am
mm
Dir  Spd
km/h
Gust
km/h
Spd
kts
Gust
kts
22/05:30pm 12.1 6.3 9.5 84 1.3 WNW 30 39 16 21 1020.9 1020.9 0.0
22/05:00pm 12.5 6.1 9.5 82 1.5 WNW 33 43 18 23 1020.8 1020.8 0.0
22/04:30pm 12.8 7.4 9.4 80 1.7 WNW 28 37 15 20 1020.8 1020.8 0.0
22/04:00pm 13.2 7.4 9.5 78 1.9 WNW 30 43 16 23 1020.8 1020.8 0.0
22/03:30pm 13.2 6.7 9.1 76 2.1 WNW 33 44 18 24 1020.7 1020.7 0.0
22/03:00pm 13.2 7.3 9.1 76 2.1 WNW 30 43 16 23 1020.9 1020.9 0.0
22/02:30pm 13.5 7.3 9.2 75 2.2 WNW 32 44 17 24 1021.0 1021.0 0.0
22/02:00pm 12.9 6.9 8.8 76 2.0 WNW 30 44 16 24 1021.4 1021.4 0.0
22/01:30pm 13.5 8.4 9.2 75 2.2 W 26 37 14 20 1021.6 1021.6 0.0
22/01:00pm 13.4 7.5 8.9 74 2.3 WNW 30 44 16 24 1021.8 1021.8 0.0
22/12:30pm 13.6 7.1 8.9 73 2.4 W 33 48 18 26 1022.1 1022.1 0.0
22/12:00pm 13.9 7.9 8.5 70 2.7 WNW 30 43 16 23 1022.4 1022.4 0.0
22/11:30am 14.9 9.0 9.1 68 3.0 W 30 44 16 24 1022.5 1022.5 0.0
22/11:00am 14.4 8.0 8.6 68 2.9 W 32 44 17 24 1022.7 1022.7 0.0
22/10:30am 13.6 7.1 8.2 70 2.7 W 32 48 17 26 1022.7 1022.7 0.0
22/10:00am 13.8 6.9 8.8 72 2.5 W 35 50 19 27 1022.6 1022.6 0.0
22/09:30am 13.5 5.9 9.2 75 2.2 W 39 48 21 26 1022.7 1022.7 0.0
22/09:19am 13.3 7.8 9.2 76 2.1 W 28 48 15 26 1022.7 1022.7 0.0
22/09:00am 13.5 7.2 9.0 74 2.3 W 32 43 17 23 1022.9 1022.9 0.0
22/08:37am 12.3 6.2 8.4 77 1.9 W 30 48 16 26 1022.9 1022.9 0.0
22/08:30am 12.2 5.2 8.3 77 1.9 W 35 48 19 26 1022.8 1022.8 0.0
22/08:00am 11.9 5.3 7.8 76 2.0 WNW 32 46 17 25 1022.8 1022.8 0.0
22/07:30am 11.8 5.6 7.7 76 2.0 W 30 43 16 23 1022.7 1022.7 0.0
22/07:00am 11.8 5.2 7.9 77 1.9 W 32 43 17 23 1022.7 1022.7 0.0
22/06:30am 11.4 4.7 7.3 76 2.0 W 32 48 17 26 1022.4 1022.4 0.0
22/06:00am 11.7 4.9 7.8 77 1.9 WNW 33 46 18 25 1022.2 1022.2 0.0
22/05:30am 11.5 4.8 7.4 76 2.0 WNW 32 43 17 23 1022.2 1022.2 0.0
22/05:00am 11.4 4.5 7.3 76 2.0 W 33 50 18 27 1022.2 1022.2 0.0
22/04:43am 11.5 4.8 7.4 76 2.0 W 32 50 17 27 1022.3 1022.3 0.0
22/04:30am 11.6 4.8 7.5 76 2.0 W 33 48 18 26 1022.1 1022.1 0.0
22/04:00am 11.6 4.8 7.5 76 2.0 W 33 46 18 25 1021.9 1021.9 0.0
22/03:30am 11.3 3.2 7.2 76 2.0 W 39 52 21 28 1021.8 1021.8 0.0
22/03:02am 11.1 4.4 7.2 77 1.9 W 32 50 17 27 1022.0 1022.0 0.0
22/03:00am 11.3 4.6 7.4 77 1.9 W 32 46 17 25 1022.0 1022.0 0.0
22/02:38am 11.3 4.5 7.6 78 1.8 W 33 56 18 30 1022.1 1022.1 0.0
22/02:30am 11.3 4.1 7.8 79 1.7 W 35 52 19 28 1022.2 1022.2 0.0
22/02:00am 11.1 4.3 7.6 79 1.7 WNW 33 46 18 25 1022.1 1022.1 0.0
22/01:30am 11.2 5.8 7.9 80 1.6 WNW 26 41 14 22 1022.4 1022.4 0.0
22/01:00am 11.2 5.0 7.9 80 1.6 W 30 43 16 23 1022.6 1022.6 0.0
22/12:30am 11.4 6.1 8.3 81 1.5 W 26 41 14 22 1022.8 1022.8 0.0
22/12:00am 11.1 5.0 8.1 82 1.5 W 30 43 16 23 1022.7 1022.7 0.0
 
Date/Time
EST
Temp
°C
App
Temp
°C
Dew
Point
°C
Rel
Hum
%
Delta-T
°C
Wind Press
QNH
hPa
Press
MSL
hPa
Rain since
9am
mm
Dir  Spd
km/h
Gust
km/h
Spd
kts
Gust
kts
21/11:30pm 11.1 4.6 8.1 82 1.5 W 32 43 17 23 1023.0 1023.0 0.0
21/11:00pm 11.3 4.8 8.3 82 1.5 W 32 46 17 25 1023.0 1023.0 0.0
21/10:30pm 11.0 3.9 8.2 83 1.4 W 35 50 19 27 1023.2 1023.2 0.0
21/10:00pm 11.2 5.5 8.4 83 1.4 W 28 43 15 23 1023.3 1023.3 0.0
21/09:43pm 11.4 5.8 8.6 83 1.4 W 28 46 15 25 1023.3 1023.3 0.0
21/09:30pm 11.4 5.4 8.6 83 1.4 W 30 41 16 22 1023.2 1023.2 0.0
21/09:26pm 11.5 5.8 8.5 82 1.5 W 28 48 15 26 1023.3 1023.3 0.0
21/09:00pm 11.5 5.8 8.5 82 1.5 W 28 39 15 21 1023.1 1023.1 0.0
21/08:30pm 11.6 6.7 8.6 82 1.5 W 24 41 13 22 1023.0 1023.0 0.0
21/08:00pm 11.6 5.6 8.6 82 1.5 W 30 44 16 24 1022.5 1022.5 0.0
21/07:50pm 11.6 5.7 9.0 84 1.3 W 30 48 16 26 1022.5 1022.5 0.0
21/07:30pm 11.8 5.4 9.2 84 1.3 WNW 33 48 18 26 1022.0 1022.0 0.0
21/07:00pm 11.9 5.7 9.5 85 1.2 W 32 46 17 25 1021.7 1021.7 0.0
21/06:30pm 12.0 5.9 9.7 86 1.2 W 32 52 17 28 1021.6 1021.6 0.0
21/06:21pm 12.0 5.7 9.7 86 1.2 WNW 33 52 18 28 1021.4 1021.4 0.0
21/06:00pm 12.1 5.4 9.8 86 1.2 WNW 35 52 19 28 1021.1 1021.1 0.0
21/05:30pm 12.3 6.0 9.7 84 1.3 WNW 33 46 18 25 1021.0 1021.0 0.0
21/05:00pm 12.6 5.9 9.8 83 1.4 WNW 35 50 19 27 1020.9 1020.9 0.0
21/04:30pm 12.8 6.2 10.0 83 1.4 WNW 35 48 19 26 1020.7 1020.7 0.0
21/04:00pm 13.1 6.5 9.9 81 1.6 WNW 35 50 19 27 1020.7 1020.7 0.0
21/03:30pm 13.2 6.5 9.8 80 1.7 WNW 35 46 19 25 1020.6 1020.6 0.0
21/03:00pm 13.2 6.5 9.8 80 1.7 WNW 35 50 19 27 1020.5 1020.5 0.0
21/02:30pm 13.4 7.1 9.8 79 1.8 WNW 33 46 18 25 1020.7 1020.7 0.0
21/02:05pm 13.7 7.4 9.7 77 2.1 WNW 33 54 18 29 1020.7 1020.7 0.0
21/02:00pm 13.7 8.0 9.9 78 2.0 WNW 30 43 16 23 1020.8 1020.8 0.0
21/01:30pm 13.8 7.5 9.8 77 2.1 WNW 33 46 18 25 1020.9 1020.9 0.0
21/01:00pm 14.0 7.9 9.8 76 2.2 WNW 32 43 17 23 1021.2 1021.2 0.0
21/12:30pm 14.3 8.7 10.1 76 2.2 WNW 30 41 16 22 1021.4 1021.4 0.0
21/12:00pm 14.2 8.6 10.0 76 2.2 WNW 30 41 16 22 1021.7 1021.7 0.0
21/11:30am 14.0 8.5 10.4 79 1.9 WNW 30 41 16 22 1021.8 1021.8 0.0
21/11:00am 13.8 7.8 10.2 79 1.9 WNW 32 41 17 22 1021.9 1021.9 0.0
21/10:30am 13.3 8.5 10.3 82 1.6 WNW 26 37 14 20 1022.0 1022.0 0.0
21/10:00am 13.4 8.2 10.4 82 1.6 WNW 28 39 15 21 1021.9 1021.9 0.0
21/09:30am 13.1 7.7 9.4 78 1.9 WNW 28 39 15 21 1021.9 1021.9 0.0
21/09:00am 13.3 8.0 9.9 80 1.7 WNW 28 37 15 20 1022.0 1022.0 0.0
21/08:30am 12.9 8.0 9.9 82 1.5 WNW 26 37 14 20 1022.1 1022.1 0.0
21/08:00am 12.5 8.0 9.9 84 1.3 WNW 24 37 13 20 1022.1 1022.1 0.0
21/07:30am 12.2 7.7 10.1 87 1.1 WNW 24 35 13 19 1021.7 1021.7 0.0
21/07:00am 11.7 7.2 9.9 89 0.9 WNW 24 33 13 18 1021.4 1021.4 0.0
21/06:30am 11.2 7.0 9.6 90 0.8 W 22 33 12 18 1021.1 1021.1 0.0
21/06:00am 11.3 6.7 9.6 89 0.9 WNW 24 32 13 17 1020.9 1020.9 0.0
21/05:30am 11.2 6.2 9.5 89 0.9 W 26 41 14 22 1020.6 1020.6 0.0
21/05:00am 11.1 6.0 9.2 88 0.9 W 26 32 14 17 1020.4 1020.4 0.0
21/04:30am 11.0 6.3 9.1 88 0.9 W 24 35 13 19 1020.2 1020.2 0.0
21/04:00am 11.2 5.7 9.1 87 1.0 W 28 39 15 21 1020.1 1020.1 0.0
21/03:30am 11.3 5.1 9.2 87 1.0 W 32 43 17 23 1020.0 1020.0 0.0
21/03:00am 11.3 6.6 9.4 88 1.0 W 24 37 13 20 1019.8 1019.8 0.0
21/02:30am 11.2 5.7 9.3 88 1.0 W 28 35 15 19 1019.9 1019.9 0.0
21/02:00am 11.2 5.8 9.5 89 0.9 W 28 39 15 21 1020.2 1020.2 0.0
21/01:30am 11.0 6.3 9.3 89 0.8 W 24 33 13 18 1020.2 1020.2 0.0
21/01:00am 10.9 5.4 9.2 89 0.8 W 28 39 15 21 1020.0 1020.0 0.0
21/12:30am 11.0 7.0 9.1 88 0.9 W 20 28 11 15 1020.1 1020.1 0.0
21/12:00am 11.0 6.3 9.1 88 0.9 W 24 33 13 18 1020.1 1020.1 0.0
 
Date/Time
EST
Temp
°C
App
Temp
°C
Dew
Point
°C
Rel
Hum
%
Delta-T
°C
Wind Press
QNH
hPa
Press
MSL
hPa
Rain since
9am
mm
Dir  Spd
km/h
Gust
km/h
Spd
kts
Gust
kts
20/11:30pm 11.0 6.2 8.8 86 1.1 W 24 35 13 19 1019.9 1019.9 0.0
20/11:00pm 11.0 6.6 8.8 86 1.1 W 22 30 12 16 1020.0 1020.0 0.0
20/10:30pm 11.3 6.1 8.9 85 1.2 W 26 35 14 19 1019.8 1019.8 0.0
20/10:00pm 11.4 6.2 9.0 85 1.2 W 26 35 14 19 1019.6 1019.6 0.0
20/09:30pm 11.4 7.0 8.8 84 1.3 W 22 32 12 17 1019.4 1019.4 0.0
20/09:00pm 11.5 6.8 9.1 85 1.2 WNW 24 35 13 19 1019.2 1019.2 0.0
20/08:30pm 11.4 7.0 9.0 85 1.2 WNW 22 33 12 18 1019.1 1019.1 0.0
20/08:00pm 11.4 6.3 9.1 86 1.1 WNW 26 37 14 20 1018.8 1018.8 0.0
20/07:30pm 11.5 6.5 9.4 87 1.1 WNW 26 37 14 20 1018.4 1018.4 0.0
20/07:00pm 11.5 6.1 9.4 87 1.1 WNW 28 39 15 21 1018.0 1018.0 0.0
20/06:30pm 11.7 5.4 9.1 84 1.3 WNW 32 44 17 24 1017.6 1017.6 0.0
20/06:00pm 11.9 6.3 8.9 82 1.5 WNW 28 41 15 22 1017.6 1017.6 0.0
20/05:30pm 12.1 6.5 8.6 79 1.7 WNW 28 37 15 20 1017.3 1017.3 0.0
20/05:00pm 12.5 7.2 8.4 76 2.0 WNW 26 35 14 19 1017.0 1017.0 0.0
20/04:30pm 12.7 7.3 8.2 74 2.2 W 26 37 14 20 1016.9 1016.9 0.0
20/04:00pm 13.0 7.2 8.1 72 2.4 W 28 44 15 24 1016.7 1016.7 0.0
20/03:30pm 13.4 7.4 8.5 72 2.4 WNW 30 43 16 23 1016.4 1016.4 0.0
20/03:08pm 13.5 7.8 8.4 71 2.5 W 28 46 15 25 1016.5 1016.5 0.0
20/03:00pm 13.5 7.0 8.1 70 2.7 WNW 32 46 17 25 1016.3 1016.3 0.0
20/02:30pm 13.6 7.4 7.8 68 2.9 W 30 50 16 27 1016.3 1016.3 0.0
20/02:29pm 13.7 7.5 7.9 68 2.9 W 30 50 16 27 1016.3 1016.3 0.0
20/02:00pm 13.6 7.7 7.4 66 3.0 W 28 41 15 22 1016.3 1016.3 0.0
20/01:30pm 13.9 8.4 7.4 65 3.2 WNW 26 41 14 22 1016.5 1016.5 0.0
20/01:00pm 13.8 8.1 6.9 63 3.3 W 26 43 14 23 1016.3 1016.3 0.0
20/12:31pm 14.1 8.1 6.9 62 3.5 W 28 46 15 25 1016.6 1016.6 0.0
20/12:30pm 14.0 8.3 6.8 62 3.5 W 26 46 14 25 1016.6 1016.6 0.0
20/12:00pm 14.1 8.1 7.2 63 3.4 W 28 43 15 23 1016.7 1016.7 0.0
20/11:30am 13.7 7.3 6.8 63 3.3 W 30 43 16 23 1016.7 1016.7 0.0
20/11:00am 13.6 6.6 6.9 64 3.2 W 33 46 18 25 1016.5 1016.5 0.0
20/10:30am 13.0 5.5 6.4 64 3.1 W 35 48 19 26 1016.5 1016.5 0.0
20/10:00am 12.9 5.5 6.9 67 2.9 W 35 46 19 25 1016.3 1016.3 0.0
20/09:30am 12.5 5.6 6.5 67 2.9 W 32 44 17 24 1016.1 1016.1 0.0
20/09:19am 12.2 5.3 6.3 67 2.8 W 32 44 17 24 1016.0 1016.0 0.0
20/09:00am 12.3 8.1 7.4 72 2.4 W 19 26 10 14 1015.8 1015.8 0.0
20/08:30am 11.4 8.3 7.3 76 2.0 WNW 13 20 7 11 1015.6 1015.6 0.0
20/08:00am 10.4 6.4 6.5 77 1.8 W 17 22 9 12 1015.8 1015.8 0.0
20/07:30am 9.1 4.5 5.5 78 1.6 W 19 24 10 13 1015.7 1015.7 0.0
20/07:00am 8.1 3.7 4.7 79 1.5 W 17 22 9 12 1015.6 1015.6 0.0
20/06:30am 6.6 2.7 3.2 79 1.4 WSW 13 19 7 10 1015.5 1015.5 0.0
20/06:00am 6.4 2.4 3.0 79 1.4 WSW 13 20 7 11 1015.4 1015.4 0.0
20/05:30am 6.3 2.3 2.9 79 1.4 WSW 13 20 7 11 1015.1 1015.1 0.0
20/05:00am 6.4 2.4 3.0 79 1.4 WSW 13 17 7 9 1014.7 1014.7 0.0
20/04:30am 6.5 2.5 3.1 79 1.4 WSW 13 20 7 11 1014.5 1014.5 0.0
20/04:00am 6.1 2.6 3.3 82 1.2 WSW 11 17 6 9 1014.2 1014.2 0.0
20/03:30am 6.0 2.4 3.0 81 1.2 WSW 11 17 6 9 1014.1 1014.1 0.0
20/03:00am 6.5 2.7 3.7 82 1.2 WSW 13 19 7 10 1014.1 1014.1 0.0
20/02:30am 6.7 2.9 4.0 83 1.2 WSW 13 19 7 10 1014.2 1014.2 0.0
20/02:00am 6.7 3.0 4.4 85 1.0 WSW 13 20 7 11 1014.2 1014.2 0.0
20/01:30am 6.9 3.3 5.1 88 0.8 W 13 19 7 10 1014.4 1014.4 0.0
20/01:00am 7.5 4.1 5.8 89 0.8 W 13 17 7 9 1014.4 1014.4 0.0
20/12:30am 6.5 3.3 5.0 90 0.7 W 11 17 6 9 1014.2 1014.2 0.0
20/12:00am 6.3 3.8 4.8 90 0.7 WSW 7 9 4 5 1014.3 1014.3 0.0
 
Date/Time
EST
Temp
°C
App
Temp
°C
Dew
Point
°C
Rel
Hum
%
Delta-T
°C
Wind Press
QNH
hPa
Press
MSL
hPa
Rain since
9am
mm
Dir  Spd
km/h
Gust
km/h
Spd
kts
Gust
kts
19/11:30pm 6.7 4.2 5.0 89 0.7 SSW 7 7 4 4 1014.1 1014.1 0.0
19/11:00pm 6.9 4.1 5.2 89 0.7 SSW 9 13 5 7 1014.0 1014.0 0.0
19/10:30pm 7.3 4.6 5.6 89 0.8 SSW 9 11 5 6 1013.9 1013.9 0.0
19/10:00pm 7.1 3.9 5.3 88 0.8 S 11 15 6 8 1013.6 1013.6 0.0
19/09:30pm 7.5 4.7 5.3 86 1.0 S 9 13 5 7 1013.5 1013.5 0.0
19/09:00pm 7.7 4.5 5.0 83 1.2 S 11 15 6 8 1013.1 1013.1 0.0
19/08:30pm 7.8 4.9 4.6 80 1.4 S 9 13 5 7 1012.9 1012.9 0.0
19/08:00pm 7.8 4.9 4.4 79 1.5 SSE 9 11 5 6 1012.3 1012.3 0.0
19/07:30pm 8.1 5.5 4.1 76 1.7 S 7 11 4 6 1011.8 1011.8 0.0
19/07:00pm 8.3 5.3 3.9 74 1.9 SSW 9 11 5 6 1011.4 1011.4 0.0
19/06:30pm 8.8 6.3 4.0 72 2.1 SW 6 9 3 5 1010.7 1010.8 0.0
19/06:00pm 9.9 6.6 4.3 68 2.5 S 11 19 6 10 1010.1 1010.2 0.0

Other Formats:

Comma delimited format used in spreadsheet applications
http://www.bom.gov.au/fwo/IDT60801/IDT60801.95985.axf

JavaScript Object Notation format (JSON) in row-major order
http://www.bom.gov.au/fwo/IDT60801/IDT60801.95985.json